createdAt,value
2022-08-03T00:01:27.186Z,9.40
2022-08-03T00:03:53.816Z,8.15
2022-08-03T00:06:20.462Z,7.43
2022-08-03T00:08:47.116Z,8.00
2022-08-03T00:11:13.846Z,7.93
2022-08-03T00:13:40.697Z,8.90
2022-08-03T00:16:07.487Z,9.10
2022-08-03T00:18:34.167Z,8.13
2022-08-03T00:21:00.852Z,9.75
2022-08-03T00:23:31.731Z,8.80
2022-08-03T00:26:14.305Z,8.23
2022-08-03T00:28:41.199Z,8.18
2022-08-03T00:31:08.180Z,8.57
2022-08-03T00:33:57.912Z,7.35
2022-08-03T00:36:27.256Z,7.95
2022-08-03T00:38:54.193Z,8.48
2022-08-03T00:41:21.064Z,8.52
2022-08-03T00:43:47.897Z,8.95
2022-08-03T00:46:20.532Z,9.95
2022-08-03T00:48:49.530Z,8.77
2022-08-03T00:51:16.419Z,9.00
2022-08-03T00:53:43.344Z,8.30
2022-08-03T00:56:13.057Z,8.40
2022-08-03T00:58:39.685Z,8.35
2022-08-03T01:01:07.153Z,8.07
2022-08-03T01:03:34.397Z,8.52
2022-08-03T01:06:18.790Z,10.32
2022-08-03T01:08:55.775Z,10.15
2022-08-03T01:11:59.973Z,10.13
2022-08-03T01:14:53.628Z,9.05
2022-08-03T01:17:29.321Z,9.00
2022-08-03T01:20:11.593Z,9.88
2022-08-03T01:22:54.450Z,10.90
2022-08-03T01:25:42.803Z,10.32
2022-08-03T01:28:38.888Z,8.82
2022-08-03T01:31:08.352Z,10.95
2022-08-03T01:33:41.937Z,11.00
2022-08-03T01:36:14.491Z,8.80
2022-08-03T01:38:55.262Z,10.38
2022-08-03T01:41:29.040Z,8.25
2022-08-03T01:44:30.250Z,11.07
2022-08-03T01:46:49.118Z,10.48
2022-08-03T01:49:17.147Z,10.82
2022-08-03T01:51:58.580Z,11.18
2022-08-03T01:54:34.670Z,9.70
2022-08-03T01:57:02.770Z,9.65
2022-08-03T01:59:30.561Z,9.25
2022-08-03T02:02:27.762Z,9.18
2022-08-03T02:04:47.689Z,9.10
2022-08-03T02:07:16.139Z,9.30
2022-08-03T02:09:46.818Z,10.18
2022-08-03T02:12:15.170Z,8.93
2022-08-03T02:14:44.378Z,9.57
2022-08-03T02:17:12.420Z,9.75
2022-08-03T02:19:40.596Z,8.65
2022-08-03T02:22:10.779Z,8.73
2022-08-03T02:24:37.595Z,8.80
2022-08-03T02:27:10.141Z,9.75
2022-08-03T02:29:40.965Z,9.93
2022-08-03T02:32:14.232Z,9.60
2022-08-03T02:34:44.454Z,10.13
2022-08-03T02:37:13.428Z,8.93
2022-08-03T02:39:41.874Z,9.20
2022-08-03T02:42:12.764Z,8.77
2022-08-03T02:44:43.679Z,9.20
2022-08-03T02:47:12.416Z,8.35
2022-08-03T02:49:50.388Z,8.45
2022-08-03T02:52:23.595Z,9.13
2022-08-03T02:54:54.856Z,9.52
2022-08-03T02:57:23.171Z,9.60
2022-08-03T02:59:51.771Z,10.93
2022-08-03T03:02:19.741Z,9.70
2022-08-03T03:05:54.450Z,9.73
2022-08-03T03:07:46.885Z,10.35
2022-08-03T03:10:23.037Z,10.05
2022-08-03T03:12:56.363Z,8.80
2022-08-03T03:15:25.894Z,10.23
2022-08-03T03:17:53.609Z,8.50
2022-08-03T03:20:29.017Z,9.82
2022-08-03T03:23:00.000Z,8.95
2022-08-03T03:25:28.085Z,8.35
2022-08-03T03:27:55.267Z,9.45
2022-08-03T03:30:24.977Z,9.35
2022-08-03T03:32:52.675Z,10.65
2022-08-03T03:35:19.593Z,9.57
2022-08-03T03:37:46.638Z,11.27
2022-08-03T03:40:14.444Z,10.30
2022-08-03T03:42:41.604Z,9.95
2022-08-03T03:45:09.100Z,8.77
2022-08-03T03:47:36.677Z,11.32
2022-08-03T03:50:07.085Z,9.07
2022-08-03T03:52:34.519Z,8.27
2022-08-03T03:55:01.759Z,8.95
2022-08-03T03:57:29.371Z,8.63
2022-08-03T03:59:56.175Z,10.20
2022-08-03T04:02:22.877Z,9.15
2022-08-03T04:05:08.083Z,9.52
2022-08-03T04:08:12.550Z,9.23
2022-08-03T04:11:00.260Z,8.20
2022-08-03T04:13:35.203Z,10.65
2022-08-03T04:16:03.038Z,9.93
2022-08-03T04:18:31.670Z,9.75
2022-08-03T04:21:03.634Z,8.75
2022-08-03T04:23:34.622Z,8.70
2022-08-03T04:26:03.405Z,9.73
2022-08-03T04:28:32.312Z,10.23
2022-08-03T04:31:04.437Z,9.98
2022-08-03T04:33:36.998Z,7.97
2022-08-03T04:36:07.352Z,9.75
2022-08-03T04:38:40.479Z,9.02
2022-08-03T04:41:07.979Z,11.00
2022-08-03T04:43:35.186Z,9.88
2022-08-03T04:46:02.835Z,8.77
2022-08-03T04:48:29.767Z,9.68
2022-08-03T04:50:56.993Z,10.77
2022-08-03T04:53:23.774Z,8.35
2022-08-03T04:55:50.438Z,10.57
2022-08-03T04:58:17.196Z,8.90
2022-08-03T05:00:45.379Z,9.65
2022-08-03T05:03:23.534Z,9.63
2022-08-03T05:05:51.842Z,7.35
2022-08-03T05:08:20.761Z,7.45
2022-08-03T05:10:55.652Z,7.28
2022-08-03T05:13:25.810Z,8.48
2022-08-03T05:15:52.537Z,10.18
2022-08-03T05:18:19.375Z,8.48
2022-08-03T05:20:46.041Z,7.75
2022-08-03T05:23:12.741Z,7.22
2022-08-03T05:25:39.556Z,6.35
2022-08-03T05:28:06.444Z,6.40
2022-08-03T05:30:34.524Z,8.05
2022-08-03T05:33:02.945Z,6.88
2022-08-03T05:36:02.142Z,7.88
2022-08-03T05:38:20.881Z,6.90
2022-08-03T05:40:57.371Z,6.93
2022-08-03T05:43:41.813Z,6.13
2022-08-03T05:46:11.757Z,6.13
2022-08-03T05:48:39.696Z,5.95
2022-08-03T05:51:07.636Z,7.70
2022-08-03T05:53:34.861Z,6.65
2022-08-03T05:56:15.328Z,6.13
2022-08-03T05:58:47.201Z,5.40
2022-08-03T06:01:15.605Z,5.13
2022-08-03T06:03:42.526Z,6.35
2022-08-03T06:06:09.258Z,6.05
2022-08-03T06:08:36.063Z,5.40
2022-08-03T06:11:03.577Z,4.72
2022-08-03T06:13:30.218Z,6.07
2022-08-03T06:15:56.888Z,5.28
2022-08-03T06:18:24.595Z,4.32
2022-08-03T06:20:52.359Z,6.40
2022-08-03T06:23:19.436Z,5.05
2022-08-03T06:25:46.671Z,4.53
2022-08-03T06:28:42.470Z,4.03
2022-08-03T06:31:01.391Z,4.80
2022-08-03T06:34:30.187Z,5.13
2022-08-03T06:36:15.309Z,4.63
2022-08-03T06:38:41.932Z,3.75
2022-08-03T06:41:08.672Z,4.47
2022-08-03T06:43:37.623Z,4.50
2022-08-03T06:46:07.962Z,4.55
2022-08-03T06:48:34.569Z,2.88
2022-08-03T06:51:01.204Z,4.40
2022-08-03T06:53:27.975Z,3.90
2022-08-03T06:55:55.317Z,3.88
2022-08-03T06:58:22.649Z,3.22
2022-08-03T07:00:49.487Z,3.05
2022-08-03T07:03:16.511Z,3.17
2022-08-03T07:05:43.952Z,3.50
2022-08-03T07:08:10.801Z,3.33
2022-08-03T07:10:37.847Z,3.25
2022-08-03T07:13:05.453Z,3.97
2022-08-03T07:15:53.778Z,3.20
2022-08-03T07:18:29.081Z,3.53
2022-08-03T07:20:57.402Z,3.13
2022-08-03T07:23:25.304Z,2.72
2022-08-03T07:25:52.150Z,2.63
2022-08-03T07:28:18.961Z,3.13
2022-08-03T07:30:45.699Z,3.53
2022-08-03T07:33:12.534Z,2.75
2022-08-03T07:35:39.448Z,3.17
2022-08-03T07:38:06.105Z,4.78
2022-08-03T07:40:32.752Z,2.88
2022-08-03T07:43:00.381Z,2.47
2022-08-03T07:45:27.116Z,2.45
2022-08-03T07:47:54.458Z,2.80
2022-08-03T07:50:22.383Z,3.13
2022-08-03T07:52:51.236Z,3.60
2022-08-03T07:55:20.106Z,2.80
2022-08-03T07:57:47.092Z,2.47
2022-08-03T08:00:19.207Z,2.58
2022-08-03T08:05:13.136Z,2.53
2022-08-03T08:07:40.216Z,3.00
2022-08-03T08:10:09.830Z,2.25
2022-08-03T08:12:37.851Z,2.55
2022-08-03T08:15:05.103Z,2.33
2022-08-03T08:17:31.831Z,2.08
2022-08-03T08:19:58.517Z,2.33
2022-08-03T08:22:30.589Z,2.35
2022-08-03T08:27:28.421Z,2.63
2022-08-03T08:30:19.370Z,1.88
2022-08-03T08:32:47.228Z,2.33
2022-08-03T08:35:14.135Z,2.25
2022-08-03T08:37:41.626Z,2.92
2022-08-03T08:40:09.078Z,3.08
2022-08-03T08:42:40.268Z,2.70
2022-08-03T08:45:10.121Z,2.10
2022-08-03T08:47:51.409Z,2.05
2022-08-03T08:50:27.833Z,2.00
2022-08-03T08:52:55.943Z,2.22
2022-08-03T08:55:23.698Z,2.00
2022-08-03T08:57:56.848Z,2.38
2022-08-03T09:00:23.488Z,2.83
2022-08-03T09:02:50.197Z,1.52
2022-08-03T09:05:18.897Z,2.40
2022-08-03T09:07:47.113Z,2.45
2022-08-03T09:10:18.787Z,3.20
2022-08-03T09:12:47.222Z,3.58
2022-08-03T09:15:25.813Z,2.38
2022-08-03T09:17:55.418Z,3.50
2022-08-03T09:20:24.213Z,2.95
2022-08-03T09:23:19.169Z,2.95
2022-08-03T09:25:58.147Z,2.05
2022-08-03T09:29:01.681Z,2.13
2022-08-03T09:31:32.369Z,1.83
2022-08-03T09:34:05.584Z,2.60
2022-08-03T09:36:44.588Z,2.40
2022-08-03T09:39:16.863Z,2.08
2022-08-03T09:41:49.121Z,3.53
2022-08-03T09:44:25.072Z,2.47
2022-08-03T09:46:56.153Z,2.38
2022-08-03T09:49:23.509Z,2.67
2022-08-03T09:52:33.874Z,2.45
2022-08-03T09:54:37.210Z,2.65
2022-08-03T09:57:04.191Z,2.13
2022-08-03T09:59:33.302Z,1.85
2022-08-03T10:02:00.603Z,3.05
2022-08-03T10:04:27.374Z,2.33
2022-08-03T10:07:09.234Z,2.88
2022-08-03T10:09:37.135Z,2.55
2022-08-03T10:12:11.737Z,2.50
2022-08-03T10:14:39.929Z,2.33
2022-08-03T10:17:06.748Z,2.65
2022-08-03T10:19:33.706Z,2.55
2022-08-03T10:22:10.386Z,2.75
2022-08-03T10:24:39.224Z,4.00
2022-08-03T10:27:11.360Z,2.67
2022-08-03T10:29:39.672Z,2.65
2022-08-03T10:32:38.415Z,2.17
2022-08-03T10:35:20.326Z,1.63
2022-08-03T10:38:16.782Z,2.08
2022-08-03T10:40:49.520Z,2.65
2022-08-03T10:43:45.659Z,2.05
2022-08-03T10:46:15.628Z,2.28
2022-08-03T10:48:43.005Z,2.22
2022-08-03T10:51:09.981Z,2.97
2022-08-03T10:53:54.963Z,2.03
2022-08-03T10:56:53.448Z,2.13
2022-08-03T10:59:46.485Z,1.85
2022-08-03T11:02:14.365Z,2.13
2022-08-03T11:04:41.712Z,2.55
2022-08-03T11:07:17.703Z,1.27
2022-08-03T11:09:49.893Z,2.15
2022-08-03T11:15:01.222Z,2.47
2022-08-03T11:17:28.143Z,2.33
2022-08-03T11:19:57.607Z,2.72
2022-08-03T11:22:25.564Z,2.67
2022-08-03T11:24:54.295Z,2.78
2022-08-03T11:27:23.121Z,2.28
2022-08-03T11:30:00.424Z,2.63
2022-08-03T11:32:46.569Z,2.17
2022-08-03T11:35:16.135Z,2.88
2022-08-03T11:38:03.003Z,1.85
2022-08-03T11:40:48.215Z,2.60
2022-08-03T11:43:31.288Z,1.77
2022-08-03T11:46:06.357Z,2.20
2022-08-03T11:48:39.914Z,2.47
2022-08-03T11:51:18.385Z,1.98
2022-08-03T11:53:47.665Z,2.35
2022-08-03T11:56:14.422Z,1.60
2022-08-03T11:59:16.364Z,3.40
2022-08-03T12:01:35.411Z,2.78
2022-08-03T12:04:06.705Z,2.40
2022-08-03T12:06:53.303Z,3.47
2022-08-03T12:09:21.369Z,2.10
2022-08-03T12:11:59.762Z,2.38
2022-08-03T12:14:50.503Z,2.58
2022-08-03T12:17:16.407Z,2.53
2022-08-03T12:19:43.643Z,2.22
2022-08-03T12:22:10.420Z,2.08
2022-08-03T12:24:42.313Z,1.83
2022-08-03T12:27:09.123Z,1.98
2022-08-03T12:29:36.518Z,2.75
2022-08-03T12:32:03.485Z,1.58
2022-08-03T12:34:49.043Z,1.92
2022-08-03T12:37:23.561Z,1.92
2022-08-03T12:40:02.890Z,2.75
2022-08-03T12:42:37.271Z,2.10
2022-08-03T12:45:24.392Z,2.05
2022-08-03T12:47:55.580Z,1.73
2022-08-03T12:50:27.407Z,2.78
2022-08-03T12:55:22.759Z,2.78
2022-08-03T12:57:49.754Z,2.75
2022-08-03T13:00:28.944Z,2.00
2022-08-03T13:03:39.687Z,1.70
2022-08-03T13:05:57.333Z,2.00
2022-08-03T13:08:25.395Z,1.77
2022-08-03T13:10:52.442Z,1.90
2022-08-03T13:13:20.733Z,2.45
2022-08-03T13:15:47.643Z,2.00
2022-08-03T13:18:17.265Z,2.33
2022-08-03T13:20:44.483Z,2.78
2022-08-03T13:23:12.965Z,1.90
2022-08-03T13:25:55.185Z,2.22
2022-08-03T13:28:23.207Z,1.73
2022-08-03T13:30:49.919Z,1.98
2022-08-03T13:33:16.671Z,2.35
2022-08-03T13:35:43.348Z,2.13
2022-08-03T13:38:10.045Z,1.80
2022-08-03T13:40:42.226Z,2.15
2022-08-03T13:43:09.306Z,1.52
2022-08-03T13:45:37.053Z,3.10
2022-08-03T13:48:03.867Z,1.90
2022-08-03T13:50:31.323Z,3.00
2022-08-03T13:52:59.011Z,1.67
2022-08-03T13:55:25.754Z,1.55
2022-08-03T13:58:03.294Z,1.67
2022-08-03T14:00:33.864Z,1.85
2022-08-03T14:03:17.358Z,2.28
2022-08-03T14:05:44.467Z,2.38
2022-08-03T14:08:12.207Z,2.65
2022-08-03T14:10:43.455Z,2.05
2022-08-03T14:13:12.619Z,2.85
2022-08-03T14:15:43.831Z,2.40
2022-08-03T14:18:27.738Z,2.10
2022-08-03T14:21:00.647Z,2.38
2022-08-03T14:23:32.379Z,2.53
2022-08-03T14:25:59.804Z,2.17
2022-08-03T14:28:26.462Z,1.15
2022-08-03T14:30:54.320Z,2.00
2022-08-03T14:33:21.920Z,2.45
2022-08-03T14:35:49.222Z,2.88
2022-08-03T14:38:16.329Z,2.72
2022-08-03T14:40:43.324Z,1.70
2022-08-03T14:43:09.960Z,1.90
2022-08-03T14:45:36.702Z,1.52
2022-08-03T14:50:34.226Z,1.65
2022-08-03T14:50:52.581Z,1.38
2022-08-03T14:53:19.999Z,1.58
2022-08-03T14:55:50.648Z,1.70
2022-08-03T14:58:22.844Z,2.67
2022-08-03T15:00:50.851Z,2.38
2022-08-03T15:03:20.380Z,2.00
2022-08-03T15:05:47.328Z,1.58
2022-08-03T15:08:14.059Z,1.92
2022-08-03T15:10:45.274Z,1.88
2022-08-03T15:13:15.834Z,1.48
2022-08-03T15:15:42.821Z,1.25
2022-08-03T15:18:09.500Z,1.85
2022-08-03T15:20:44.280Z,3.75
2022-08-03T15:23:12.097Z,2.45
2022-08-03T15:26:04.057Z,1.35
2022-08-03T15:28:25.505Z,1.15
2022-08-03T15:30:52.973Z,1.73
2022-08-03T15:33:19.682Z,1.67
2022-08-03T15:35:47.391Z,2.30
2022-08-03T15:38:14.090Z,2.20
2022-08-03T15:40:40.943Z,2.60
2022-08-03T15:43:07.685Z,6.22
2022-08-03T15:45:35.346Z,2.17
2022-08-03T15:48:07.115Z,1.63
2022-08-03T15:50:34.308Z,2.38
2022-08-03T15:53:00.948Z,1.95
2022-08-03T15:55:27.701Z,1.77
2022-08-03T15:59:04.204Z,1.38
2022-08-03T16:00:42.156Z,3.17
2022-08-03T16:03:09.359Z,2.05
2022-08-03T16:05:36.264Z,2.15
2022-08-03T16:08:05.047Z,2.70
2022-08-03T16:10:33.771Z,1.55
2022-08-03T16:13:00.551Z,2.13
2022-08-03T16:15:27.559Z,1.48
2022-08-03T16:17:54.281Z,3.10
2022-08-03T16:20:31.586Z,2.75
2022-08-03T16:23:10.308Z,2.45
2022-08-03T16:25:41.601Z,1.83
2022-08-03T16:28:13.963Z,2.05
2022-08-03T16:30:43.982Z,2.08
2022-08-03T16:33:11.644Z,1.75
2022-08-03T16:35:43.832Z,2.78
2022-08-03T16:38:13.192Z,1.95
2022-08-03T16:40:43.426Z,1.95
2022-08-03T16:43:18.002Z,2.72
2022-08-03T16:45:46.728Z,2.00
2022-08-03T16:48:14.021Z,3.20
2022-08-03T16:50:40.717Z,1.77
2022-08-03T16:53:09.130Z,2.92
2022-08-03T16:55:51.693Z,3.80
2022-08-03T16:58:34.810Z,2.72
2022-08-03T17:01:21.559Z,2.65
2022-08-03T17:04:01.560Z,1.45
2022-08-03T17:06:33.931Z,2.15
2022-08-03T17:09:01.607Z,2.03
2022-08-03T17:11:32.145Z,3.63
2022-08-03T17:14:00.390Z,3.20
2022-08-03T17:16:27.234Z,2.05
2022-08-03T17:19:02.482Z,3.08
2022-08-03T17:21:32.985Z,2.45
2022-08-03T17:24:14.547Z,2.13
2022-08-03T17:26:50.080Z,2.15
2022-08-03T17:31:48.898Z,1.92
2022-08-03T17:34:17.557Z,2.35
2022-08-03T17:39:57.607Z,2.22
2022-08-03T17:42:31.098Z,1.90
2022-08-03T17:45:07.289Z,2.50
2022-08-03T17:47:42.689Z,2.70
2022-08-03T17:50:24.256Z,2.15
2022-08-03T17:53:06.704Z,2.20
2022-08-03T17:55:57.093Z,1.92
2022-08-03T17:58:44.454Z,2.47
2022-08-03T18:02:02.630Z,1.33
2022-08-03T18:04:36.904Z,1.88
2022-08-03T18:07:12.453Z,2.63
2022-08-03T18:10:04.620Z,2.03
2022-08-03T18:12:40.022Z,2.78
2022-08-03T18:15:20.815Z,1.70
2022-08-03T18:18:01.674Z,3.13
2022-08-03T18:20:32.896Z,2.30
2022-08-03T18:23:08.921Z,4.75
2022-08-03T18:25:44.431Z,3.13
2022-08-03T18:28:16.324Z,3.45
2022-08-03T18:30:54.277Z,2.58
2022-08-03T18:34:17.132Z,2.85
2022-08-03T18:36:17.637Z,2.72
2022-08-03T18:38:49.252Z,5.55
2022-08-03T18:41:22.076Z,3.85
2022-08-03T18:44:07.039Z,3.60
2022-08-03T18:46:47.250Z,4.25
2022-08-03T18:49:37.400Z,3.17
2022-08-03T18:52:12.535Z,3.50
2022-08-03T18:55:01.182Z,3.13
2022-08-03T18:57:46.431Z,2.47
2022-08-03T19:00:17.290Z,2.28
2022-08-03T19:03:02.592Z,3.45
2022-08-03T19:05:56.266Z,3.55
2022-08-03T19:08:48.012Z,3.78
2022-08-03T19:12:14.123Z,3.05
2022-08-03T19:14:31.992Z,3.28
2022-08-03T19:17:07.293Z,3.97
2022-08-03T19:19:44.444Z,4.65
2022-08-03T19:22:16.018Z,4.15
2022-08-03T19:24:46.257Z,2.95
2022-08-03T19:27:13.553Z,3.67
2022-08-03T19:30:00.494Z,4.47
2022-08-03T19:32:30.587Z,3.85
2022-08-03T19:34:59.737Z,3.13
2022-08-03T19:37:38.389Z,3.65
2022-08-03T19:40:10.274Z,4.63
2022-08-03T19:42:42.043Z,4.25
2022-08-03T19:45:11.298Z,2.97
2022-08-03T19:50:20.399Z,2.80
2022-08-03T19:52:49.519Z,3.70
2022-08-03T19:55:17.869Z,3.22
2022-08-03T19:57:49.314Z,5.88
2022-08-03T20:00:19.914Z,4.32
2022-08-03T20:02:47.204Z,4.15
2022-08-03T20:05:17.924Z,4.38
2022-08-03T20:07:48.072Z,4.22
2022-08-03T20:10:34.934Z,5.68
2022-08-03T20:13:02.285Z,4.88
2022-08-03T20:15:31.867Z,5.78
2022-08-03T20:17:59.576Z,7.00
2022-08-03T20:20:28.637Z,5.28
2022-08-03T20:22:59.163Z,4.97
2022-08-03T20:25:38.816Z,5.53
2022-08-03T20:28:14.290Z,6.18
2022-08-03T20:30:44.010Z,7.13
2022-08-03T20:33:11.121Z,6.13
2022-08-03T20:35:37.813Z,4.72
2022-08-03T20:38:09.242Z,4.40
2022-08-03T20:40:36.336Z,6.35
2022-08-03T20:43:04.997Z,5.05
2022-08-03T20:46:00.972Z,4.90
2022-08-03T20:48:22.179Z,6.63
2022-08-03T20:50:49.373Z,5.10
2022-08-03T20:53:56.759Z,4.93
2022-08-03T20:56:05.057Z,6.15
2022-08-03T20:58:35.469Z,6.10
2022-08-03T21:01:03.249Z,4.47
2022-08-03T21:03:40.904Z,6.00
2022-08-03T21:06:27.408Z,4.88
2022-08-03T21:09:00.208Z,4.40
2022-08-03T21:11:41.607Z,4.60
2022-08-03T21:14:18.789Z,5.18
2022-08-03T21:16:48.003Z,5.82
2022-08-03T21:19:17.262Z,5.18
2022-08-03T21:21:46.455Z,5.82
2022-08-03T21:24:13.846Z,5.38
2022-08-03T21:26:41.642Z,5.10
2022-08-03T21:29:11.478Z,6.40
2022-08-03T21:31:39.788Z,5.28
2022-08-03T21:34:06.895Z,4.93
2022-08-03T21:36:36.350Z,5.43
2022-08-03T21:39:06.151Z,5.13
2022-08-03T21:41:33.231Z,3.83
2022-08-03T21:44:00.924Z,4.35
2022-08-03T21:46:32.344Z,5.00
2022-08-03T21:50:05.077Z,5.03
2022-08-03T21:51:53.940Z,4.65
2022-08-03T21:54:21.555Z,5.80
2022-08-03T21:56:51.080Z,5.93
2022-08-03T21:59:20.096Z,4.57
2022-08-03T22:01:49.403Z,3.92
2022-08-03T22:04:50.663Z,8.32
2022-08-03T22:07:08.251Z,6.63
2022-08-03T22:09:36.681Z,4.93
2022-08-03T22:12:03.858Z,5.22
2022-08-03T22:14:33.014Z,6.05
2022-08-03T22:17:00.723Z,4.18
2022-08-03T22:19:30.226Z,5.25
2022-08-03T22:21:59.071Z,8.73
2022-08-03T22:24:28.795Z,4.47
2022-08-03T22:27:14.814Z,5.95
2022-08-03T22:29:42.997Z,4.55
2022-08-03T22:32:10.446Z,4.47
2022-08-03T22:34:37.448Z,3.83
2022-08-03T22:37:04.875Z,6.15
2022-08-03T22:39:32.271Z,4.38
2022-08-03T22:41:59.449Z,4.35
2022-08-03T22:44:27.199Z,5.32
2022-08-03T22:46:54.302Z,5.80
2022-08-03T22:49:22.070Z,3.95
2022-08-03T22:51:51.556Z,4.95
2022-08-03T22:54:18.523Z,4.00
2022-08-03T22:56:49.865Z,4.70
2022-08-03T22:59:39.968Z,5.40
2022-08-03T23:02:25.794Z,6.30
2022-08-03T23:05:01.902Z,4.10
2022-08-03T23:07:34.086Z,5.28
2022-08-03T23:12:30.294Z,6.35
2022-08-03T23:15:01.179Z,4.63
2022-08-03T23:17:31.077Z,5.25
2022-08-03T23:20:05.260Z,5.63
2022-08-03T23:22:34.192Z,6.18
2022-08-03T23:25:03.821Z,5.45
2022-08-03T23:27:34.331Z,6.00
2022-08-03T23:30:01.960Z,4.63
2022-08-03T23:32:30.501Z,4.20
2022-08-03T23:35:18.889Z,5.32
2022-08-03T23:38:04.023Z,5.38
2022-08-03T23:40:34.951Z,5.32
2022-08-03T23:43:02.605Z,5.03
2022-08-03T23:45:31.243Z,4.63
2022-08-03T23:47:57.905Z,3.97
2022-08-03T23:50:27.692Z,4.60
2022-08-03T23:53:05.982Z,5.18
2022-08-03T23:55:44.365Z,4.90
2022-08-03T23:58:23.324Z,6.28
